Time;durP1;ratioP1;P1;durP2;ratioP2;P2;SDS_P1;SDS_P2;PMS_P1;PMS_P2;Temp;Humidity;BMP_temperature;BMP_pressure;BME280_temperature;BME280_humidity;BME280_pressure;Samples;Min_cycle;Max_cycle;Signal;HPM_P1;HPM_P2
2021/11/21 00:03:14;;;;;;;12.70;9.65;;;9.40;99.90;;;;;;2603604;54;20077;31
2021/11/21 00:06:00;;;;;;;15.38;10.80;;;9.30;99.90;;;;;;2621933;46;20032;31
2021/11/21 00:08:48;;;;;;;14.50;10.20;;;9.30;99.90;;;;;;2603328;54;20897;31
2021/11/21 00:11:24;;;;;;;;;;;9.30;99.90;;;;;;2622142;46;20026;31
2021/11/21 00:14:10;;;;;;;;;;;9.20;99.90;;;;;;2603156;54;20027;31
2021/11/21 00:20:16;;;;;;;12.85;9.95;;;9.20;99.90;;;;;;2603129;54;20930;31
2021/11/21 00:22:58;;;;;;;15.30;10.90;;;9.20;99.90;;;;;;2701728;39;20473;31
2021/11/21 00:25:34;;;;;;;17.65;11.00;;;9.20;99.90;;;;;;2701806;39;20497;31
2021/11/21 00:28:13;;;;;;;12.80;10.43;;;9.20;99.90;;;;;;2602823;54;20880;31
2021/11/21 00:30:53;;;;;;;13.45;10.50;;;9.30;99.90;;;;;;2622139;46;20968;31
2021/11/21 00:33:54;;;;;;;12.52;9.73;;;9.20;99.90;;;;;;2603333;54;20030;31
2021/11/21 00:39:25;;;;;;;15.15;9.88;;;9.20;99.90;;;;;;2621765;46;20030;31
2021/11/21 00:42:07;;;;;;;11.88;9.65;;;9.20;99.90;;;;;;2603167;54;20893;31
2021/11/21 00:44:52;;;;;;;13.88;9.70;;;9.20;99.90;;;;;;2622027;46;20026;31
2021/11/21 00:47:31;;;;;;;13.30;10.18;;;9.20;99.90;;;;;;2603464;54;20038;31
2021/11/21 00:50:24;;;;;;;13.55;9.73;;;9.10;99.90;;;;;;2603271;54;20037;31
2021/11/21 00:53:12;;;;;;;14.90;9.90;;;9.20;99.90;;;;;;2603267;54;20030;31
2021/11/21 00:56:08;;;;;;;14.00;9.80;;;9.20;99.90;;;;;;2603155;54;20832;31
2021/11/21 00:58:51;;;;;;;12.55;9.77;;;9.10;99.90;;;;;;2621678;46;19954;31
2021/11/21 01:01:42;;;;;;;16.10;10.15;;;9.20;99.90;;;;;;2603542;54;20038;31
2021/11/21 01:04:25;;;;;;;13.00;10.60;;;9.20;99.90;;;;;;2603024;54;20027;31
2021/11/21 01:10:05;;;;;;;13.70;9.60;;;9.20;99.90;;;;;;2603172;54;20046;31
2021/11/21 01:12:47;;;;;;;13.07;9.20;;;9.20;99.90;;;;;;2603347;54;20849;31
2021/11/21 01:15:28;;;;;;;12.43;9.53;;;9.20;99.90;;;;;;2603437;54;20086;31
2021/11/21 01:21:16;;;;;;;11.75;8.93;;;9.20;99.90;;;;;;2621442;46;20038;31
2021/11/21 01:23:59;;;;;;;10.55;8.35;;;9.20;99.90;;;;;;2602901;54;20042;31
2021/11/21 01:26:52;;;;;;;14.70;9.60;;;9.10;99.90;;;;;;2603264;54;20764;31
2021/11/21 01:29:41;;;;;;;13.18;9.55;;;9.10;99.90;;;;;;2603284;54;20136;31
2021/11/21 01:32:22;;;;;;;12.70;9.50;;;9.20;99.90;;;;;;2621598;46;20096;31
2021/11/21 01:35:29;;;;;;;12.60;8.97;;;9.10;99.90;;;;;;2603093;54;20992;31
2021/11/21 01:38:20;;;;;;;11.55;9.82;;;9.20;99.90;;;;;;2603079;54;20811;31
2021/11/21 01:41:04;;;;;;;11.35;9.27;;;9.10;99.90;;;;;;2602861;54;20062;31
2021/11/21 01:46:48;;;;;;;11.70;9.55;;;9.10;99.90;;;;;;2603007;54;20033;31
2021/11/21 01:49:53;;;;;;;11.07;9.27;;;9.10;99.90;;;;;;2603038;54;20057;31
2021/11/21 01:52:39;;;;;;;12.25;9.23;;;9.10;99.90;;;;;;2603023;54;20646;31
2021/11/21 01:58:40;;;;;;;;;;;;;;;;;;;;;
2021/11/21 02:01:52;;;;;;;10.35;9.15;;;9.20;99.90;;;;;;2621605;46;20179;31
2021/11/21 02:04:49;;;;;;;12.13;9.18;;;9.10;99.90;;;;;;2701270;39;20488;31
2021/11/21 02:07:30;;;;;;;12.53;9.30;;;9.10;99.90;;;;;;2621398;46;20026;31
2021/11/21 02:10:21;;;;;;;10.93;9.02;;;9.10;99.90;;;;;;2602997;54;20049;31
2021/11/21 02:13:17;;;;;;;11.35;8.85;;;9.10;99.90;;;;;;2602964;54;20034;31
2021/11/21 02:15:57;;;;;;;12.17;9.53;;;9.10;99.90;;;;;;2602993;54;20976;31
2021/11/21 02:18:45;;;;;;;10.65;8.88;;;9.10;99.90;;;;;;2602987;54;20238;31
2021/11/21 02:21:30;;;;;;;10.35;8.55;;;9.10;99.90;;;;;;2603030;54;20674;31
2021/11/21 02:36:37;;;;;;;9.80;8.30;;;9.10;99.90;;;;;;2621386;47;20057;31
2021/11/21 02:39:29;;;;;;;11.65;9.35;;;9.10;99.90;;;;;;2608996;47;20026;31
2021/11/21 02:42:08;;;;;;;10.50;8.45;;;9.10;99.90;;;;;;2621828;46;20096;31
2021/11/21 02:45:01;;;;;;;12.83;10.20;;;9.10;99.90;;;;;;2622511;46;20892;31
2021/11/21 02:47:39;;;;;;;11.85;9.20;;;9.10;99.90;;;;;;2603561;54;20258;31
2021/11/21 02:50:21;;;;;;;9.60;8.47;;;9.10;99.90;;;;;;2603781;54;20851;31
2021/11/21 02:53:08;;;;;;;11.43;9.33;;;9.10;99.90;;;;;;2603791;54;21180;31
2021/11/21 02:59:06;;;;;;;11.02;9.48;;;9.10;99.90;;;;;;2603750;54;20026;31
2021/11/21 03:01:45;;;;;;;11.47;9.33;;;9.00;99.90;;;;;;2603601;54;20861;31
2021/11/21 03:04:25;;;;;;;12.00;9.30;;;9.00;99.90;;;;;;2603483;54;21144;31
2021/11/21 03:07:04;;;;;;;9.60;7.87;;;9.00;99.90;;;;;;2603485;54;20853;31
2021/11/21 03:09:45;;;;;;;12.50;9.82;;;9.10;99.90;;;;;;2603602;54;21091;31
2021/11/21 03:15:32;;;;;;;12.17;9.20;;;9.00;99.90;;;;;;2603530;54;20104;31
2021/11/21 03:18:20;;;;;;;12.85;9.32;;;9.00;99.90;;;;;;2603393;54;20033;31
2021/11/21 03:21:12;;;;;;;12.80;10.03;;;9.10;99.90;;;;;;2603537;54;20030;31
2021/11/21 03:23:57;;;;;;;10.60;9.07;;;9.10;99.90;;;;;;2603511;54;20853;31
2021/11/21 03:26:50;;;;;;;12.27;10.00;;;9.10;99.90;;;;;;2622199;46;20770;31
2021/11/21 03:29:37;;;;;;;12.90;10.60;;;9.10;99.90;;;;;;2622353;46;20644;31
2021/11/21 03:32:25;;;;;;;11.10;9.32;;;9.10;99.90;;;;;;2603608;54;20026;31
2021/11/21 03:38:12;;;;;;;11.18;8.85;;;9.10;99.90;;;;;;2605658;46;20041;31
2021/11/21 03:46:43;;;;;;;;;;;9.10;99.90;;;;;;2603404;54;19934;31
2021/11/21 04:05:21;;;;;;;14.05;10.20;;;8.90;99.90;;;;;;2603662;54;20057;31
2021/11/21 04:08:31;;;;;;;14.15;10.75;;;8.90;99.90;;;;;;2602990;54;20018;31
2021/11/21 04:11:30;;;;;;;11.63;10.20;;;8.90;99.90;;;;;;2603459;54;20968;31
2021/11/21 04:14:43;;;;;;;15.90;12.40;;;8.80;99.90;;;;;;2606855;46;20027;31
2021/11/21 04:26:13;;;;;;;22.02;16.52;;;8.80;99.90;;;;;;2602662;54;20892;31
2021/11/21 04:44:17;;;;;;;17.40;13.65;;;8.70;99.90;;;;;;2603295;54;20022;31
2021/11/21 04:47:20;;;;;;;15.50;12.50;;;8.70;99.90;;;;;;2603285;54;20929;31
2021/11/21 04:50:08;;;;;;;16.83;12.57;;;8.70;99.90;;;;;;2603275;54;20026;31
2021/11/21 04:56:35;;;;;;;16.02;12.45;;;8.70;99.90;;;;;;2603005;54;20022;31
2021/11/21 04:59:34;;;;;;;16.35;12.55;;;8.60;99.90;;;;;;2620994;46;20029;31
2021/11/21 05:02:39;;;;;;;;;;;;;;;;;;;;;
2021/11/21 05:05:50;;;;;;;15.90;12.82;;;8.60;99.90;;;;;;2602869;54;20048;31
2021/11/21 05:08:58;;;;;;;15.53;12.00;;;8.60;99.90;;;;;;2603206;54;20049;31
2021/11/21 05:14:46;;;;;;;16.23;12.23;;;8.60;99.90;;;;;;2701032;39;21144;31
2021/11/21 05:17:54;;;;;;;13.90;11.00;;;8.60;99.90;;;;;;2621543;46;20026;31
2021/11/21 05:23:43;;;;;;;17.02;12.50;;;8.60;99.90;;;;;;2603334;54;21360;31
2021/11/21 05:26:33;;;;;;;16.85;13.90;;;8.50;99.90;;;;;;2603298;54;20770;31
2021/11/21 05:32:27;;;;;;;15.83;13.03;;;8.50;99.90;;;;;;2602937;54;20853;31
2021/11/21 05:35:13;;;;;;;18.27;13.60;;;8.50;99.90;;;;;;2621337;46;21244;31
2021/11/21 05:37:54;;;;;;;15.05;12.10;;;8.50;99.90;;;;;;2701525;39;21644;31
2021/11/21 05:40:44;;;;;;;20.07;14.23;;;8.50;99.90;;;;;;2602380;54;20112;31
2021/11/21 05:46:47;;;;;;;15.85;13.15;;;8.50;99.90;;;;;;2603174;54;20903;31
2021/11/21 05:52:38;;;;;;;17.58;13.82;;;8.50;99.90;;;;;;2602401;54;20204;31
2021/11/21 05:55:34;;;;;;;17.60;13.43;;;8.40;99.90;;;;;;2603380;54;20034;31
2021/11/21 05:58:23;;;;;;;17.05;14.15;;;8.40;99.90;;;;;;2621620;46;20845;31
2021/11/21 06:00:59;;;;;;;17.45;14.40;;;8.40;99.90;;;;;;2701526;39;21470;31
2021/11/21 06:03:41;;;;;;;16.40;14.00;;;8.30;99.90;;;;;;2602596;54;20093;31
2021/11/21 06:06:31;;;;;;;17.05;12.80;;;8.30;99.90;;;;;;2620383;46;20030;31
2021/11/21 06:12:29;;;;;;;17.30;14.17;;;8.30;99.90;;;;;;2603227;54;20076;31
2021/11/21 06:15:26;;;;;;;16.60;12.88;;;8.30;99.90;;;;;;2602583;54;20030;31
2021/11/21 06:23:44;;;;;;;15.97;12.20;;;8.30;99.90;;;;;;2620994;46;20870;31
2021/11/21 06:26:34;;;;;;;17.07;12.80;;;8.30;99.90;;;;;;2602947;54;20300;31
2021/11/21 06:29:15;;;;;;;20.75;15.20;;;8.30;99.90;;;;;;2602927;54;20324;31
2021/11/21 06:31:57;;;;;;;18.85;13.50;;;8.30;99.90;;;;;;2621296;47;20052;31
2021/11/21 06:34:48;;;;;;;20.63;14.65;;;8.30;99.90;;;;;;2602747;54;20922;31
2021/11/21 06:43:29;;;;;;;21.50;16.70;;;8.30;99.90;;;;;;2602835;54;20257;31
2021/11/21 06:46:10;;;;;;;21.45;16.35;;;8.30;99.90;;;;;;2602963;54;20820;31
2021/11/21 06:49:13;;;;;;;21.30;16.87;;;8.30;99.90;;;;;;2610293;47;20793;31
2021/11/21 06:52:01;;;;;;;23.02;16.52;;;8.30;99.90;;;;;;2602836;54;20033;31
2021/11/21 06:54:41;;;;;;;22.63;17.50;;;8.30;99.90;;;;;;2603098;54;20034;31
2021/11/21 06:59:55;;;;;;;20.77;16.38;;;8.30;99.90;;;;;;2602890;54;20133;31
2021/11/21 07:02:32;;;;;;;19.45;14.88;;;8.30;99.90;;;;;;2602930;54;20825;31
2021/11/21 07:11:26;;;;;;;21.27;16.60;;;8.30;99.90;;;;;;2603030;54;20811;31
2021/11/21 07:14:06;;;;;;;18.15;14.90;;;8.40;99.90;;;;;;2620871;47;20037;31
2021/11/21 07:20:43;;;;;;;24.15;18.65;;;8.40;99.90;;;;;;2602753;54;20036;31
2021/11/21 07:23:38;;;;;;;24.15;18.70;;;8.40;99.90;;;;;;2604267;47;20029;31
2021/11/21 07:26:31;;;;;;;20.10;16.55;;;8.40;99.90;;;;;;2603406;54;20865;31
2021/11/21 07:29:18;;;;;;;24.15;16.90;;;8.40;99.90;;;;;;2622163;46;20096;31
2021/11/21 07:32:10;;;;;;;21.47;16.17;;;8.40;99.90;;;;;;2602959;54;20902;31
2021/11/21 07:34:57;;;;;;;22.67;16.38;;;8.40;99.90;;;;;;2622103;46;20154;31
2021/11/21 07:37:56;;;;;;;19.70;15.75;;;8.40;99.90;;;;;;2603595;54;20022;31
2021/11/21 07:40:55;;;;;;;21.27;16.98;;;8.40;99.90;;;;;;2621898;46;20157;31
2021/11/21 07:43:44;;;;;;;25.20;17.07;;;8.50;99.90;;;;;;2603645;54;20042;31
2021/11/21 07:49:17;;;;;;;21.37;16.27;;;8.40;99.90;;;;;;2603415;54;20030;31
2021/11/21 07:52:01;;;;;;;22.65;17.45;;;8.30;99.90;;;;;;2603527;54;20856;31
2021/11/21 07:54:45;;;;;;;22.73;17.55;;;8.40;99.90;;;;;;2603695;54;20030;31
2021/11/21 07:57:27;;;;;;;21.90;16.30;;;8.40;99.90;;;;;;2603524;54;20858;31
2021/11/21 08:00:06;;;;;;;21.05;17.15;;;8.40;99.90;;;;;;2603353;54;20871;31
2021/11/21 08:02:45;;;;;;;21.45;17.40;;;8.40;99.90;;;;;;2621697;46;20086;31
2021/11/21 08:05:24;;;;;;;25.50;18.33;;;8.40;99.90;;;;;;2602693;54;21471;31
2021/11/21 08:07:59;;;;;;;20.77;16.90;;;8.40;99.90;;;;;;2602694;54;20863;31
2021/11/21 08:10:37;;;;;;;20.90;16.25;;;8.40;99.90;;;;;;2602575;54;20258;31
2021/11/21 08:13:26;;;;;;;22.33;16.30;;;8.40;99.90;;;;;;2603864;54;20786;31
2021/11/21 08:16:12;;;;;;;22.40;18.02;;;8.40;99.90;;;;;;2603428;54;20818;31
2021/11/21 08:18:50;;;;;;;28.47;21.70;;;8.50;99.90;;;;;;2603100;54;20104;31
2021/11/21 08:21:35;;;;;;;26.73;18.97;;;8.50;99.90;;;;;;2603398;54;21036;31
2021/11/21 08:24:15;;;;;;;22.47;18.90;;;8.50;99.90;;;;;;2603438;54;20921;31
2021/11/21 08:26:56;;;;;;;25.30;18.90;;;8.60;99.90;;;;;;2720368;39;20470;31
2021/11/21 08:29:42;;;;;;;24.10;16.95;;;8.60;99.90;;;;;;2603585;54;20050;31
2021/11/21 08:32:22;;;;;;;20.55;15.75;;;8.70;99.90;;;;;;2621972;46;20089;31
2021/11/21 08:35:04;;;;;;;22.15;17.00;;;8.70;99.90;;;;;;2603584;54;20755;31
2021/11/21 08:37:42;;;;;;;20.92;16.80;;;8.80;99.90;;;;;;2621429;46;20880;31
2021/11/21 08:40:16;;;;;;;20.80;16.63;;;8.90;99.90;;;;;;2603435;54;20023;31
2021/11/21 08:42:56;;;;;;;20.38;15.85;;;8.90;99.90;;;;;;2603410;54;20049;31
2021/11/21 08:45:32;;;;;;;21.30;16.33;;;9.00;99.90;;;;;;2621784;46;20034;31
2021/11/21 08:48:18;;;;;;;21.15;15.90;;;9.10;99.90;;;;;;2603612;54;20246;31
2021/11/21 08:50:53;;;;;;;19.27;15.98;;;9.10;99.90;;;;;;2603311;54;20061;31
2021/11/21 08:56:21;;;;;;;20.60;15.35;;;9.20;99.90;;;;;;2603411;54;20874;31
2021/11/21 08:59:01;;;;;;;20.80;16.08;;;9.20;99.90;;;;;;2603299;54;20023;31
2021/11/21 09:04:38;;;;;;;23.10;15.80;;;9.30;99.90;;;;;;2602953;54;20033;31
2021/11/21 09:07:20;;;;;;;18.55;15.63;;;9.30;99.90;;;;;;2621422;46;20971;31
2021/11/21 09:10:06;;;;;;;19.90;16.40;;;9.30;99.90;;;;;;2621402;46;20905;31
2021/11/21 09:12:43;;;;;;;23.08;17.58;;;9.30;99.90;;;;;;2603159;54;20038;31
2021/11/21 09:15:21;;;;;;;22.75;17.15;;;9.30;99.90;;;;;;2603332;54;20049;31
2021/11/21 09:24:58;;;;;;;23.42;16.25;;;9.40;99.90;;;;;;2607431;46;20948;31
2021/11/21 09:27:47;;;;;;;21.85;17.02;;;9.50;99.90;;;;;;2603335;54;20038;31
2021/11/21 09:30:38;;;;;;;22.67;16.38;;;9.50;99.90;;;;;;2606758;46;20083;31
2021/11/21 09:34:05;;;;;;;22.17;16.80;;;9.50;99.90;;;;;;2603284;54;20030;31
2021/11/21 09:36:45;;;;;;;22.63;16.73;;;9.60;99.90;;;;;;2603224;54;21178;31
2021/11/21 09:42:29;;;;;;;22.27;17.13;;;9.60;99.90;;;;;;2603392;54;20033;31
2021/11/21 09:51:29;;;;;;;22.55;17.10;;;9.60;99.90;;;;;;2603286;54;20108;31
2021/11/21 10:22:35;;;;;;;22.70;17.80;;;9.60;99.90;;;;;;2607050;46;20037;31
2021/11/21 10:29:24;;;;;;;21.80;16.25;;;9.90;99.90;;;;;;2620902;46;20096;31
2021/11/21 10:32:06;;;;;;;18.50;14.77;;;10.10;99.90;;;;;;2602597;54;20030;31
2021/11/21 10:34:56;;;;;;;18.20;15.17;;;10.30;99.90;;;;;;2602914;54;20835;31
2021/11/21 10:44:08;;;;;;;17.55;14.27;;;10.60;99.90;;;;;;2605598;47;20950;31
2021/11/21 10:47:13;;;;;;;16.35;14.20;;;10.50;99.90;;;;;;2602758;54;20862;31
2021/11/21 10:50:14;;;;;;;;;;;10.50;99.90;;;;;;2603008;54;20034;31
2021/11/21 11:06:03;;;;;;;18.25;14.50;;;10.00;99.90;;;;;;2603521;54;22368;31
2021/11/21 11:09:11;;;;;;;;;;;9.80;99.90;;;;;;2607454;46;20801;31
2021/11/21 11:11:59;;;;;;;19.10;14.35;;;9.70;99.90;;;;;;2603559;54;20730;31
2021/11/21 11:17:57;;;;;;;19.00;14.48;;;9.60;99.90;;;;;;2603461;54;20853;31
2021/11/21 11:24:04;;;;;;;20.67;16.20;;;9.50;99.90;;;;;;2603082;54;20023;31
2021/11/21 11:33:36;;;;;;;19.65;15.20;;;9.30;99.90;;;;;;2603347;54;20029;31
2021/11/21 11:36:40;;;;;;;20.88;15.95;;;9.30;99.90;;;;;;2606904;46;20287;31
2021/11/21 11:42:09;;;;;;;22.13;15.63;;;9.40;99.90;;;;;;2603259;54;20882;31
2021/11/21 11:44:55;;;;;;;20.48;15.25;;;9.70;99.90;;;;;;2603783;54;20257;31
2021/11/21 11:47:58;;;;;;;20.63;16.00;;;9.70;99.90;;;;;;2603568;54;20026;31
2021/11/21 11:50:48;;;;;;;22.60;14.50;;;9.90;99.90;;;;;;2603583;54;20116;31
2021/11/21 11:53:35;;;;;;;22.20;11.82;;;10.10;99.90;;;;;;2607618;46;20912;31
2021/11/21 11:56:13;;;;;;;21.73;16.85;;;10.50;99.90;;;;;;2621671;46;20033;31
2021/11/21 11:58:51;;;;;;;21.00;16.05;;;10.50;99.90;;;;;;2603401;54;19935;31
2021/11/21 12:01:54;;;;;;;21.57;16.87;;;10.40;99.90;;;;;;2603414;54;20863;31
2021/11/21 12:04:51;;;;;;;22.27;16.50;;;10.30;99.90;;;;;;2603556;54;21068;31
2021/11/21 12:07:31;;;;;;;22.23;16.17;;;10.10;99.90;;;;;;2621362;46;20321;31
2021/11/21 12:10:12;;;;;;;22.05;16.95;;;10.00;99.90;;;;;;2603566;54;20851;31
2021/11/21 12:13:08;;;;;;;20.75;16.35;;;9.90;99.90;;;;;;2603359;54;20858;31
2021/11/21 12:15:51;;;;;;;20.10;16.08;;;9.80;99.90;;;;;;2603562;54;20030;31
2021/11/21 12:18:52;;;;;;;22.33;17.17;;;9.70;99.90;;;;;;2603335;54;20870;31
2021/11/21 12:21:58;;;;;;;22.98;17.50;;;9.70;99.90;;;;;;2603045;54;21066;31
2021/11/21 12:24:36;;;;;;;25.45;18.90;;;9.60;99.90;;;;;;2603052;54;20774;31
2021/11/21 12:27:21;;;;;;;23.15;18.48;;;9.60;99.90;;;;;;2603353;54;20864;31
2021/11/21 12:30:06;;;;;;;24.87;17.80;;;9.50;99.90;;;;;;2603474;54;20814;31
2021/11/21 12:32:48;;;;;;;22.40;16.93;;;9.50;99.90;;;;;;2603453;54;20903;31
2021/11/21 12:35:24;;;;;;;22.98;16.88;;;9.50;99.90;;;;;;2603196;54;20061;31
2021/11/21 12:38:02;;;;;;;21.67;16.58;;;9.40;99.90;;;;;;2603500;54;20027;31
2021/11/21 12:40:37;;;;;;;21.13;16.67;;;9.40;99.90;;;;;;2603373;54;20042;31
2021/11/21 12:43:13;;;;;;;21.10;15.90;;;9.40;99.90;;;;;;2603630;54;20759;31
2021/11/21 12:45:47;;;;;;;;;;;9.40;99.90;;;;;;2603700;54;20746;31
2021/11/21 12:48:24;;;;;;;20.98;16.23;;;9.40;99.90;;;;;;2603069;54;19942;31
2021/11/21 12:51:00;;;;;;;20.83;16.00;;;9.40;99.90;;;;;;2603351;54;19934;31
2021/11/21 12:53:37;;;;;;;;;;;9.40;99.90;;;;;;2603562;54;20888;31
2021/11/21 12:56:19;;;;;;;20.63;15.27;;;9.30;99.90;;;;;;2603168;54;19957;31
2021/11/21 12:58:56;;;;;;;22.90;16.23;;;9.30;99.90;;;;;;2603469;54;20022;31
2021/11/21 13:01:34;;;;;;;21.10;15.40;;;9.30;99.90;;;;;;2603111;54;20026;31
2021/11/21 13:04:09;;;;;;;23.60;16.50;;;9.30;99.90;;;;;;2603469;54;20030;31
2021/11/21 13:06:45;;;;;;;22.30;16.67;;;9.30;99.90;;;;;;2621540;46;20023;31
2021/11/21 13:09:30;;;;;;;22.35;16.70;;;9.20;99.90;;;;;;2603321;54;19934;31
2021/11/21 13:12:05;;;;;;;24.33;17.25;;;9.20;99.90;;;;;;2621768;46;20038;31
2021/11/21 13:14:58;;;;;;;22.23;17.00;;;9.30;99.90;;;;;;2603087;54;20048;31
2021/11/21 13:17:33;;;;;;;25.08;16.88;;;9.20;99.90;;;;;;2620958;46;20026;31
2021/11/21 13:20:14;;;;;;;21.42;16.58;;;9.20;99.90;;;;;;2603278;54;20082;31
2021/11/21 13:22:59;;;;;;;21.83;16.85;;;9.20;99.90;;;;;;2701609;39;21087;31
2021/11/21 13:25:45;;;;;;;22.85;18.35;;;9.20;99.90;;;;;;2602841;54;20023;31
2021/11/21 13:29:13;;;;;;;25.25;17.10;;;9.20;99.90;;;;;;2603247;54;20891;31
2021/11/21 13:32:16;;;;;;;25.35;17.15;;;9.20;99.90;;;;;;2621730;46;20916;31
2021/11/21 13:34:52;;;;;;;22.67;17.10;;;9.10;99.90;;;;;;2603320;54;20057;31
2021/11/21 13:37:29;;;;;;;21.42;17.30;;;9.10;99.90;;;;;;2603301;54;20828;31
2021/11/21 13:40:12;;;;;;;22.52;16.95;;;9.10;99.90;;;;;;2606890;46;20029;31
2021/11/21 13:43:04;;;;;;;24.15;17.83;;;9.00;99.90;;;;;;2603173;54;20744;31
2021/11/21 13:45:40;;;;;;;23.40;17.60;;;9.00;99.90;;;;;;2603023;54;20057;31
2021/11/21 13:48:32;;;;;;;28.35;19.40;;;9.00;99.90;;;;;;2603139;54;20050;31
2021/11/21 13:51:10;;;;;;;27.10;19.83;;;9.00;99.90;;;;;;2621321;46;20030;31
2021/11/21 13:53:48;;;;;;;24.38;17.25;;;9.00;99.90;;;;;;2602964;54;20034;31
2021/11/21 13:56:24;;;;;;;22.30;16.88;;;9.00;99.90;;;;;;2602966;54;20865;31
2021/11/21 13:59:15;;;;;;;24.83;17.52;;;9.00;99.90;;;;;;2621385;46;20034;31
2021/11/21 14:01:52;;;;;;;21.13;16.07;;;8.90;99.90;;;;;;2603000;54;20889;31
2021/11/21 14:11:00;;;;;;;21.50;16.20;;;9.00;99.90;;;;;;2605568;46;20853;31
2021/11/21 14:14:15;;;;;;;22.38;16.70;;;9.00;99.90;;;;;;2603024;54;20789;31
2021/11/21 14:20:19;;;;;;;24.20;17.08;;;9.00;99.90;;;;;;2602849;54;20026;31
2021/11/21 14:26:12;;;;;;;21.52;16.15;;;8.90;99.90;;;;;;2603070;54;20157;31
2021/11/21 14:29:12;;;;;;;27.08;17.58;;;8.90;99.90;;;;;;2621298;46;20037;31
2021/11/21 14:32:11;;;;;;;25.38;16.02;;;8.90;99.90;;;;;;2603080;54;20053;31
2021/11/21 14:34:56;;;;;;;25.05;16.95;;;8.90;99.90;;;;;;2621567;47;20030;31
2021/11/21 14:37:41;;;;;;;21.10;16.02;;;8.90;99.90;;;;;;2622226;46;20891;31
2021/11/21 14:40:44;;;;;;;23.10;16.70;;;8.80;99.90;;;;;;2604062;54;20891;31
2021/11/21 14:43:22;;;;;;;20.40;15.30;;;8.80;99.90;;;;;;2608386;46;20030;31
2021/11/21 14:45:57;;;;;;;22.45;16.10;;;8.70;99.90;;;;;;2603892;54;20764;31
2021/11/21 14:48:38;;;;;;;21.23;15.57;;;8.70;99.90;;;;;;2622342;46;20853;31
2021/11/21 14:51:36;;;;;;;20.60;16.38;;;8.70;99.90;;;;;;2603733;54;20026;31
2021/11/21 14:54:26;;;;;;;25.17;17.20;;;8.60;99.90;;;;;;2622315;46;20027;31
2021/11/21 14:57:04;;;;;;;22.20;16.40;;;8.60;99.90;;;;;;2603381;54;20033;31
2021/11/21 14:59:44;;;;;;;26.42;15.57;;;8.50;99.90;;;;;;2603704;54;20934;31
2021/11/21 15:02:23;;;;;;;25.23;16.50;;;8.80;99.90;;;;;;2603757;54;20030;31
2021/11/21 15:05:05;;;;;;;27.15;17.95;;;9.00;99.90;;;;;;2603656;54;20030;31
2021/11/21 15:07:47;;;;;;;25.75;18.02;;;9.00;99.90;;;;;;2622164;46;20026;31
2021/11/21 15:10:48;;;;;;;22.80;17.55;;;9.00;99.90;;;;;;2603648;54;20026;31
2021/11/21 15:16:20;;;;;;;27.05;19.05;;;8.90;99.90;;;;;;2603724;54;20022;31
2021/11/21 15:19:25;;;;;;;23.55;15.60;;;8.80;99.90;;;;;;2603630;54;20049;31
2021/11/21 15:22:01;;;;;;;27.75;19.25;;;8.80;99.90;;;;;;2603581;54;20846;31
2021/11/21 15:24:39;;;;;;;25.95;18.25;;;8.90;99.90;;;;;;2621864;46;20961;31
2021/11/21 15:27:15;;;;;;;30.35;20.45;;;8.90;99.90;;;;;;2621919;46;20031;31
2021/11/21 15:29:59;;;;;;;31.45;21.30;;;8.90;99.90;;;;;;2603744;54;20761;31
2021/11/21 15:32:34;;;;;;;32.60;22.83;;;9.00;99.90;;;;;;2603488;54;20033;31
2021/11/21 15:35:13;;;;;;;31.80;19.65;;;8.90;99.90;;;;;;2603583;54;20056;31
2021/11/21 15:37:53;;;;;;;35.00;24.33;;;9.00;99.90;;;;;;2603471;54;20054;31
2021/11/21 15:40:31;;;;;;;29.70;21.05;;;9.00;99.90;;;;;;2622031;46;20160;31
2021/11/21 15:43:22;;;;;;;32.08;21.52;;;9.00;99.90;;;;;;2603543;54;20839;31
2021/11/21 15:46:04;;;;;;;;;;;9.00;99.90;;;;;;2603792;54;20029;31
2021/11/21 15:48:43;;;;;;;33.75;22.95;;;8.90;99.90;;;;;;2622131;46;20727;31
2021/11/21 15:51:18;;;;;;;35.93;24.13;;;8.90;99.90;;;;;;2603639;54;20101;31
2021/11/21 15:53:59;;;;;;;34.10;22.20;;;8.90;99.90;;;;;;2603326;54;20045;31
2021/11/21 15:56:41;;;;;;;32.17;17.57;;;8.90;99.90;;;;;;2607665;46;20867;31
2021/11/21 15:59:34;;;;;;;32.45;22.20;;;8.90;99.90;;;;;;2621787;46;20027;31
2021/11/21 16:02:18;;;;;;;;;;;9.00;99.90;;;;;;2622388;46;20047;31
2021/11/21 16:04:54;;;;;;;40.13;24.23;;;8.90;99.90;;;;;;2621443;46;19999;31
2021/11/21 16:07:31;;;;;;;38.42;25.55;;;8.90;99.90;;;;;;2603396;54;21119;31
2021/11/21 16:10:14;;;;;;;36.33;23.13;;;8.80;99.90;;;;;;2602640;54;20897;31
2021/11/21 16:12:55;;;;;;;40.42;25.75;;;8.70;99.90;;;;;;2603396;54;20904;31
2021/11/21 16:15:31;;;;;;;32.33;21.98;;;8.70;99.90;;;;;;2622061;46;20859;31
2021/11/21 16:18:11;;;;;;;29.60;20.65;;;8.70;99.90;;;;;;2602547;54;20112;31
2021/11/21 16:20:47;;;;;;;30.25;20.20;;;8.70;99.90;;;;;;2603432;54;20796;31
2021/11/21 16:23:23;;;;;;;28.80;20.20;;;8.70;99.90;;;;;;2603327;54;20053;31
2021/11/21 16:26:00;;;;;;;27.83;20.20;;;8.60;99.90;;;;;;2602864;54;20119;31
2021/11/21 16:28:36;;;;;;;33.75;21.55;;;8.60;99.90;;;;;;2622199;46;20026;31
2021/11/21 16:31:10;;;;;;;32.08;21.27;;;8.60;99.90;;;;;;2621644;46;22507;31
2021/11/21 16:33:57;;;;;;;30.55;20.92;;;8.50;99.90;;;;;;2603234;54;20031;31
2021/11/21 16:36:39;;;;;;;32.10;20.88;;;8.40;99.90;;;;;;2603349;54;20031;31
2021/11/21 16:39:27;;;;;;;29.13;20.80;;;8.50;99.90;;;;;;2603281;54;20022;31
2021/11/21 16:42:10;;;;;;;32.75;21.55;;;8.50;99.90;;;;;;2603573;54;20027;31
2021/11/21 16:44:50;;;;;;;30.35;21.77;;;8.50;99.90;;;;;;2603158;54;20027;31
2021/11/21 16:47:31;;;;;;;31.35;21.25;;;8.50;99.90;;;;;;2603400;54;20049;31
2021/11/21 16:50:16;;;;;;;32.43;22.00;;;8.50;99.90;;;;;;2603238;54;20861;31
2021/11/21 16:52:54;;;;;;;33.97;22.30;;;8.50;99.90;;;;;;2603559;54;21082;31
2021/11/21 16:55:30;;;;;;;34.07;23.33;;;8.50;99.90;;;;;;2603211;54;20935;31
2021/11/21 16:58:06;;;;;;;34.57;24.13;;;8.60;99.90;;;;;;2602808;54;20269;31
2021/11/21 17:00:46;;;;;;;37.03;25.57;;;8.60;99.90;;;;;;2603070;54;20865;31
2021/11/21 17:03:24;;;;;;;39.95;26.00;;;8.60;99.90;;;;;;2622076;46;20968;31
2021/11/21 17:06:45;;;;;;;35.23;25.47;;;8.60;99.90;;;;;;2603145;54;20053;31
2021/11/21 17:09:24;;;;;;;35.53;26.05;;;8.60;99.90;;;;;;2603341;54;22392;31
2021/11/21 17:12:03;;;;;;;40.87;28.23;;;8.60;99.90;;;;;;2603404;54;20026;31
2021/11/21 17:14:38;;;;;;;43.80;28.27;;;8.50;99.90;;;;;;2621827;46;20026;31
2021/11/21 17:17:20;;;;;;;43.95;28.20;;;8.50;99.90;;;;;;2603111;54;20810;31
2021/11/21 17:20:04;;;;;;;42.63;29.37;;;8.50;99.90;;;;;;2603240;54;20026;31
2021/11/21 17:22:48;;;;;;;45.43;31.23;;;8.40;99.90;;;;;;2621804;46;20865;31
2021/11/21 17:25:24;;;;;;;44.77;30.63;;;8.40;99.90;;;;;;2603240;54;21202;31
2021/11/21 17:28:00;;;;;;;46.92;31.45;;;8.40;99.90;;;;;;2621837;46;21232;31
2021/11/21 17:30:37;;;;;;;40.85;27.92;;;8.40;99.90;;;;;;2603105;54;20115;31
2021/11/21 17:33:14;;;;;;;50.23;32.73;;;8.40;99.90;;;;;;2603267;54;20093;31
2021/11/21 17:35:49;;;;;;;44.42;31.25;;;8.40;99.90;;;;;;2603211;54;20242;31
2021/11/21 17:38:30;;;;;;;45.78;31.98;;;8.30;99.90;;;;;;2621184;46;20082;31
2021/11/21 17:41:11;;;;;;;45.00;29.95;;;8.30;99.90;;;;;;2603170;54;21016;31
2021/11/21 17:43:51;;;;;;;50.75;35.50;;;8.30;99.90;;;;;;2603090;54;20050;31
2021/11/21 17:46:27;;;;;;;52.27;33.03;;;8.30;99.90;;;;;;2603117;54;20067;31
2021/11/21 17:49:05;;;;;;;47.80;31.58;;;8.30;99.90;;;;;;2621693;46;21196;31
2021/11/21 17:51:41;;;;;;;47.25;33.15;;;8.30;99.90;;;;;;2621898;46;20652;31
2021/11/21 17:54:20;;;;;;;50.45;34.35;;;8.30;99.90;;;;;;2621357;46;20038;31
2021/11/21 17:57:03;;;;;;;47.03;31.47;;;8.30;99.90;;;;;;2603133;54;20038;31
2021/11/21 17:59:50;;;;;;;54.20;33.90;;;8.20;99.90;;;;;;2621518;46;20026;31
2021/11/21 18:02:26;;;;;;;42.63;29.55;;;8.20;99.90;;;;;;2603144;54;20056;31
2021/11/21 18:05:09;;;;;;;50.63;32.63;;;8.20;99.90;;;;;;2621511;46;20048;31
2021/11/21 18:07:48;;;;;;;51.00;32.97;;;8.20;99.90;;;;;;2621563;46;20942;31
2021/11/21 18:10:29;;;;;;;41.07;27.23;;;8.10;99.90;;;;;;2603043;54;20026;31
2021/11/21 18:13:06;;;;;;;47.30;30.85;;;8.10;99.90;;;;;;2603261;54;20757;31
2021/11/21 18:15:43;;;;;;;50.58;32.20;;;8.10;99.90;;;;;;2603143;54;20030;31
2021/11/21 18:18:21;;;;;;;57.53;35.30;;;8.10;99.90;;;;;;2603125;54;20060;31
2021/11/21 18:20:59;;;;;;;50.15;33.28;;;8.10;99.90;;;;;;2602871;54;20321;31
2021/11/21 18:23:35;;;;;;;53.40;34.95;;;8.10;99.90;;;;;;2602923;54;20026;31
2021/11/21 18:26:15;;;;;;;52.88;34.67;;;8.10;99.90;;;;;;2621422;46;20026;31
2021/11/21 18:28:57;;;;;;;48.17;31.35;;;8.10;99.90;;;;;;2621592;46;20030;31